sensor_id;sensor_type;location;lat;lon;timestamp;P1;durP1;ratioP1;P2;durP2;ratioP2
18796;SDS011;9526;52.612;13.300;2024-03-02T00:02:04;90.53;;;41.28;;
18796;SDS011;9526;52.612;13.300;2024-03-02T00:04:29;85.00;;;41.38;;
18796;SDS011;9526;52.612;13.300;2024-03-02T00:06:52;90.15;;;40.55;;
18796;SDS011;9526;52.612;13.300;2024-03-02T00:09:17;95.65;;;42.00;;
18796;SDS011;9526;52.612;13.300;2024-03-02T00:11:42;93.18;;;41.15;;
18796;SDS011;9526;52.612;13.300;2024-03-02T00:14:06;96.80;;;41.15;;
18796;SDS011;9526;52.612;13.300;2024-03-02T00:16:31;83.85;;;39.63;;
18796;SDS011;9526;52.612;13.300;2024-03-02T00:18:55;93.85;;;41.05;;
18796;SDS011;9526;52.612;13.300;2024-03-02T00:21:19;90.53;;;40.92;;
18796;SDS011;9526;52.612;13.300;2024-03-02T00:23:44;84.85;;;39.22;;
18796;SDS011;9526;52.612;13.300;2024-03-02T00:26:08;85.45;;;38.47;;
18796;SDS011;9526;52.612;13.300;2024-03-02T00:28:36;94.03;;;41.88;;
18796;SDS011;9526;52.612;13.300;2024-03-02T00:31:05;87.03;;;38.63;;
18796;SDS011;9526;52.612;13.300;2024-03-02T00:33:30;85.13;;;39.63;;
18796;SDS011;9526;52.612;13.300;2024-03-02T00:35:56;85.82;;;38.65;;
18796;SDS011;9526;52.612;13.300;2024-03-02T00:38:21;83.97;;;38.65;;
18796;SDS011;9526;52.612;13.300;2024-03-02T00:40:45;81.75;;;37.78;;
18796;SDS011;9526;52.612;13.300;2024-03-02T00:43:11;78.07;;;38.45;;
18796;SDS011;9526;52.612;13.300;2024-03-02T00:46:13;92.15;;;39.10;;
18796;SDS011;9526;52.612;13.300;2024-03-02T00:48:44;86.57;;;37.72;;
18796;SDS011;9526;52.612;13.300;2024-03-02T00:51:18;80.28;;;36.78;;
18796;SDS011;9526;52.612;13.300;2024-03-02T00:53:43;84.90;;;39.50;;
18796;SDS011;9526;52.612;13.300;2024-03-02T00:56:08;79.72;;;37.25;;
18796;SDS011;9526;52.612;13.300;2024-03-02T00:58:33;88.40;;;38.00;;
18796;SDS011;9526;52.612;13.300;2024-03-02T01:00:58;82.18;;;36.85;;
18796;SDS011;9526;52.612;13.300;2024-03-02T01:03:22;85.82;;;38.53;;
18796;SDS011;9526;52.612;13.300;2024-03-02T01:05:46;80.55;;;36.50;;
18796;SDS011;9526;52.612;13.300;2024-03-02T01:08:10;76.38;;;36.08;;
18796;SDS011;9526;52.612;13.300;2024-03-02T01:10:34;79.57;;;35.65;;
18796;SDS011;9526;52.612;13.300;2024-03-02T01:12:58;81.40;;;37.80;;
18796;SDS011;9526;52.612;13.300;2024-03-02T01:15:22;79.28;;;36.92;;
18796;SDS011;9526;52.612;13.300;2024-03-02T01:17:47;85.00;;;37.63;;
18796;SDS011;9526;52.612;13.300;2024-03-02T01:20:14;80.22;;;36.72;;
18796;SDS011;9526;52.612;13.300;2024-03-02T01:22:38;83.15;;;37.80;;
18796;SDS011;9526;52.612;13.300;2024-03-02T01:25:02;81.50;;;37.28;;
18796;SDS011;9526;52.612;13.300;2024-03-02T01:27:27;83.95;;;37.47;;
18796;SDS011;9526;52.612;13.300;2024-03-02T01:29:50;81.97;;;37.33;;
18796;SDS011;9526;52.612;13.300;2024-03-02T01:32:14;80.22;;;37.35;;
18796;SDS011;9526;52.612;13.300;2024-03-02T01:34:39;77.25;;;35.45;;
18796;SDS011;9526;52.612;13.300;2024-03-02T01:37:03;81.95;;;36.63;;
18796;SDS011;9526;52.612;13.300;2024-03-02T01:39:27;89.93;;;38.80;;
18796;SDS011;9526;52.612;13.300;2024-03-02T01:41:51;81.07;;;36.75;;
18796;SDS011;9526;52.612;13.300;2024-03-02T01:44:15;84.97;;;36.97;;
18796;SDS011;9526;52.612;13.300;2024-03-02T01:46:39;76.22;;;36.45;;
18796;SDS011;9526;52.612;13.300;2024-03-02T01:49:03;82.80;;;37.03;;
18796;SDS011;9526;52.612;13.300;2024-03-02T01:51:28;87.63;;;37.45;;
18796;SDS011;9526;52.612;13.300;2024-03-02T01:53:52;83.25;;;36.72;;
18796;SDS011;9526;52.612;13.300;2024-03-02T01:56:16;75.32;;;34.70;;
18796;SDS011;9526;52.612;13.300;2024-03-02T01:58:40;83.90;;;38.05;;
18796;SDS011;9526;52.612;13.300;2024-03-02T02:01:04;78.55;;;35.78;;
18796;SDS011;9526;52.612;13.300;2024-03-02T02:03:28;83.40;;;36.83;;
18796;SDS011;9526;52.612;13.300;2024-03-02T02:05:52;77.72;;;36.35;;
18796;SDS011;9526;52.612;13.300;2024-03-02T02:08:17;79.13;;;35.75;;
18796;SDS011;9526;52.612;13.300;2024-03-02T02:10:41;79.05;;;36.08;;
18796;SDS011;9526;52.612;13.300;2024-03-02T02:13:05;79.45;;;36.20;;
18796;SDS011;9526;52.612;13.300;2024-03-02T02:15:30;84.38;;;37.67;;
18796;SDS011;9526;52.612;13.300;2024-03-02T02:17:56;84.47;;;37.05;;
18796;SDS011;9526;52.612;13.300;2024-03-02T02:20:21;83.50;;;36.88;;
18796;SDS011;9526;52.612;13.300;2024-03-02T02:22:55;73.95;;;35.50;;
18796;SDS011;9526;52.612;13.300;2024-03-02T02:25:19;82.70;;;36.72;;
18796;SDS011;9526;52.612;13.300;2024-03-02T02:27:43;87.82;;;37.13;;
18796;SDS011;9526;52.612;13.300;2024-03-02T02:30:07;82.10;;;34.47;;
18796;SDS011;9526;52.612;13.300;2024-03-02T02:32:32;73.63;;;34.47;;
18796;SDS011;9526;52.612;13.300;2024-03-02T02:34:55;81.28;;;36.00;;
18796;SDS011;9526;52.612;13.300;2024-03-02T02:37:19;84.28;;;36.50;;
18796;SDS011;9526;52.612;13.300;2024-03-02T02:39:44;84.63;;;37.67;;
18796;SDS011;9526;52.612;13.300;2024-03-02T02:42:08;76.40;;;35.92;;
18796;SDS011;9526;52.612;13.300;2024-03-02T02:44:32;82.05;;;36.45;;
18796;SDS011;9526;52.612;13.300;2024-03-02T02:46:56;82.20;;;36.92;;
18796;SDS011;9526;52.612;13.300;2024-03-02T02:49:19;80.28;;;35.13;;
18796;SDS011;9526;52.612;13.300;2024-03-02T02:51:43;73.88;;;34.17;;
18796;SDS011;9526;52.612;13.300;2024-03-02T02:54:07;83.20;;;36.15;;
18796;SDS011;9526;52.612;13.300;2024-03-02T02:56:32;71.93;;;34.58;;
18796;SDS011;9526;52.612;13.300;2024-03-02T02:58:55;79.78;;;35.95;;
18796;SDS011;9526;52.612;13.300;2024-03-02T03:01:19;75.35;;;34.92;;
18796;SDS011;9526;52.612;13.300;2024-03-02T03:03:43;73.97;;;35.03;;
18796;SDS011;9526;52.612;13.300;2024-03-02T03:06:07;77.82;;;35.30;;
18796;SDS011;9526;52.612;13.300;2024-03-02T03:08:31;80.80;;;34.50;;
18796;SDS011;9526;52.612;13.300;2024-03-02T03:10:54;80.90;;;35.67;;
18796;SDS011;9526;52.612;13.300;2024-03-02T03:13:20;82.25;;;35.80;;
18796;SDS011;9526;52.612;13.300;2024-03-02T03:15:44;83.38;;;36.50;;
18796;SDS011;9526;52.612;13.300;2024-03-02T03:18:08;76.22;;;36.28;;
18796;SDS011;9526;52.612;13.300;2024-03-02T03:20:32;75.03;;;35.72;;
18796;SDS011;9526;52.612;13.300;2024-03-02T03:22:56;82.57;;;34.88;;
18796;SDS011;9526;52.612;13.300;2024-03-02T03:25:20;77.45;;;35.88;;
18796;SDS011;9526;52.612;13.300;2024-03-02T03:27:44;77.90;;;35.33;;
18796;SDS011;9526;52.612;13.300;2024-03-02T03:30:10;82.65;;;37.17;;
18796;SDS011;9526;52.612;13.300;2024-03-02T03:32:34;80.13;;;37.05;;
18796;SDS011;9526;52.612;13.300;2024-03-02T03:34:58;79.35;;;35.55;;
18796;SDS011;9526;52.612;13.300;2024-03-02T03:37:22;79.88;;;36.17;;
18796;SDS011;9526;52.612;13.300;2024-03-02T03:39:47;88.25;;;38.00;;
18796;SDS011;9526;52.612;13.300;2024-03-02T03:42:11;88.45;;;35.30;;
18796;SDS011;9526;52.612;13.300;2024-03-02T03:44:34;79.78;;;36.63;;
18796;SDS011;9526;52.612;13.300;2024-03-02T03:46:59;80.45;;;36.85;;
18796;SDS011;9526;52.612;13.300;2024-03-02T03:49:24;75.80;;;34.50;;
18796;SDS011;9526;52.612;13.300;2024-03-02T03:51:48;77.95;;;35.42;;
18796;SDS011;9526;52.612;13.300;2024-03-02T03:54:12;80.38;;;34.88;;
18796;SDS011;9526;52.612;13.300;2024-03-02T03:56:36;83.20;;;36.10;;
18796;SDS011;9526;52.612;13.300;2024-03-02T03:58:59;81.93;;;36.88;;
18796;SDS011;9526;52.612;13.300;2024-03-02T04:01:23;75.05;;;35.38;;
18796;SDS011;9526;52.612;13.300;2024-03-02T04:03:48;84.00;;;36.47;;
18796;SDS011;9526;52.612;13.300;2024-03-02T04:06:12;83.80;;;36.25;;
18796;SDS011;9526;52.612;13.300;2024-03-02T04:08:38;79.63;;;36.15;;
18796;SDS011;9526;52.612;13.300;2024-03-02T04:11:01;82.97;;;36.22;;
18796;SDS011;9526;52.612;13.300;2024-03-02T04:13:26;79.38;;;35.75;;
18796;SDS011;9526;52.612;13.300;2024-03-02T04:15:50;81.68;;;36.85;;
18796;SDS011;9526;52.612;13.300;2024-03-02T04:18:14;83.53;;;36.08;;
18796;SDS011;9526;52.612;13.300;2024-03-02T04:20:39;86.53;;;36.95;;
18796;SDS011;9526;52.612;13.300;2024-03-02T04:23:03;82.85;;;37.92;;
18796;SDS011;9526;52.612;13.300;2024-03-02T04:25:26;83.05;;;36.20;;
18796;SDS011;9526;52.612;13.300;2024-03-02T04:27:50;79.60;;;35.70;;
18796;SDS011;9526;52.612;13.300;2024-03-02T04:30:14;79.43;;;36.95;;
18796;SDS011;9526;52.612;13.300;2024-03-02T04:32:38;75.68;;;35.55;;
18796;SDS011;9526;52.612;13.300;2024-03-02T04:35:02;78.40;;;35.05;;
18796;SDS011;9526;52.612;13.300;2024-03-02T04:37:27;84.78;;;35.58;;
18796;SDS011;9526;52.612;13.300;2024-03-02T04:39:51;75.25;;;34.13;;
18796;SDS011;9526;52.612;13.300;2024-03-02T04:42:14;78.07;;;34.95;;
18796;SDS011;9526;52.612;13.300;2024-03-02T04:44:38;76.43;;;36.15;;
18796;SDS011;9526;52.612;13.300;2024-03-02T04:47:02;89.15;;;36.33;;
18796;SDS011;9526;52.612;13.300;2024-03-02T04:49:26;79.13;;;36.63;;
18796;SDS011;9526;52.612;13.300;2024-03-02T04:51:50;81.97;;;36.20;;
18796;SDS011;9526;52.612;13.300;2024-03-02T04:54:15;83.35;;;38.55;;
18796;SDS011;9526;52.612;13.300;2024-03-02T04:56:39;82.10;;;36.30;;
18796;SDS011;9526;52.612;13.300;2024-03-02T04:59:06;79.00;;;36.08;;
18796;SDS011;9526;52.612;13.300;2024-03-02T05:01:30;80.97;;;36.90;;
18796;SDS011;9526;52.612;13.300;2024-03-02T05:03:53;74.72;;;35.40;;
18796;SDS011;9526;52.612;13.300;2024-03-02T05:06:18;79.93;;;37.38;;
18796;SDS011;9526;52.612;13.300;2024-03-02T05:08:42;78.95;;;36.88;;
18796;SDS011;9526;52.612;13.300;2024-03-02T05:11:07;72.00;;;34.97;;
18796;SDS011;9526;52.612;13.300;2024-03-02T05:13:49;82.80;;;35.78;;
18796;SDS011;9526;52.612;13.300;2024-03-02T05:16:13;79.78;;;36.50;;
18796;SDS011;9526;52.612;13.300;2024-03-02T05:18:37;80.53;;;35.78;;
18796;SDS011;9526;52.612;13.300;2024-03-02T05:21:01;80.22;;;35.70;;
18796;SDS011;9526;52.612;13.300;2024-03-02T05:23:24;78.35;;;35.78;;
18796;SDS011;9526;52.612;13.300;2024-03-02T05:25:48;79.85;;;36.08;;
18796;SDS011;9526;52.612;13.300;2024-03-02T05:28:13;77.88;;;36.38;;
18796;SDS011;9526;52.612;13.300;2024-03-02T05:30:37;82.57;;;36.58;;
18796;SDS011;9526;52.612;13.300;2024-03-02T05:33:01;76.43;;;36.90;;
18796;SDS011;9526;52.612;13.300;2024-03-02T05:35:24;77.53;;;37.13;;
18796;SDS011;9526;52.612;13.300;2024-03-02T05:37:48;81.75;;;36.92;;
18796;SDS011;9526;52.612;13.300;2024-03-02T05:40:12;78.57;;;35.38;;
18796;SDS011;9526;52.612;13.300;2024-03-02T05:42:36;82.63;;;36.20;;
18796;SDS011;9526;52.612;13.300;2024-03-02T05:45:01;78.70;;;35.58;;
18796;SDS011;9526;52.612;13.300;2024-03-02T05:47:25;74.60;;;35.22;;
18796;SDS011;9526;52.612;13.300;2024-03-02T05:49:49;75.97;;;34.75;;
18796;SDS011;9526;52.612;13.300;2024-03-02T05:52:13;74.45;;;35.30;;
18796;SDS011;9526;52.612;13.300;2024-03-02T05:54:36;74.32;;;36.33;;
18796;SDS011;9526;52.612;13.300;2024-03-02T05:57:01;82.97;;;35.67;;
18796;SDS011;9526;52.612;13.300;2024-03-02T05:59:39;82.90;;;36.40;;
18796;SDS011;9526;52.612;13.300;2024-03-02T06:02:04;82.32;;;37.72;;
18796;SDS011;9526;52.612;13.300;2024-03-02T06:04:27;84.60;;;37.28;;
18796;SDS011;9526;52.612;13.300;2024-03-02T06:06:51;86.38;;;37.08;;
18796;SDS011;9526;52.612;13.300;2024-03-02T06:09:16;82.43;;;37.40;;
18796;SDS011;9526;52.612;13.300;2024-03-02T06:11:41;90.15;;;36.60;;
18796;SDS011;9526;52.612;13.300;2024-03-02T06:14:05;87.22;;;38.53;;
18796;SDS011;9526;52.612;13.300;2024-03-02T06:16:31;84.50;;;37.58;;
18796;SDS011;9526;52.612;13.300;2024-03-02T06:18:56;84.90;;;36.53;;
18796;SDS011;9526;52.612;13.300;2024-03-02T06:21:20;87.72;;;38.13;;
18796;SDS011;9526;52.612;13.300;2024-03-02T06:23:44;84.72;;;37.97;;
18796;SDS011;9526;52.612;13.300;2024-03-02T06:26:07;84.07;;;36.67;;
18796;SDS011;9526;52.612;13.300;2024-03-02T06:28:31;82.93;;;37.22;;
18796;SDS011;9526;52.612;13.300;2024-03-02T06:30:55;88.57;;;37.45;;
18796;SDS011;9526;52.612;13.300;2024-03-02T06:33:19;90.90;;;38.50;;
18796;SDS011;9526;52.612;13.300;2024-03-02T06:35:44;88.05;;;37.92;;
18796;SDS011;9526;52.612;13.300;2024-03-02T06:38:07;88.22;;;38.85;;
18796;SDS011;9526;52.612;13.300;2024-03-02T06:40:31;86.93;;;37.72;;
18796;SDS011;9526;52.612;13.300;2024-03-02T06:42:55;87.40;;;38.90;;
18796;SDS011;9526;52.612;13.300;2024-03-02T06:45:19;81.03;;;38.13;;
18796;SDS011;9526;52.612;13.300;2024-03-02T06:47:43;83.40;;;35.67;;
18796;SDS011;9526;52.612;13.300;2024-03-02T06:50:07;84.43;;;37.58;;
18796;SDS011;9526;52.612;13.300;2024-03-02T06:52:33;85.30;;;36.63;;
18796;SDS011;9526;52.612;13.300;2024-03-02T06:54:57;84.03;;;39.10;;
18796;SDS011;9526;52.612;13.300;2024-03-02T06:57:20;89.03;;;38.03;;
18796;SDS011;9526;52.612;13.300;2024-03-02T06:59:46;81.95;;;36.30;;
18796;SDS011;9526;52.612;13.300;2024-03-02T07:02:12;88.00;;;37.08;;
18796;SDS011;9526;52.612;13.300;2024-03-02T07:04:35;83.50;;;36.10;;
18796;SDS011;9526;52.612;13.300;2024-03-02T07:06:59;79.60;;;35.45;;
18796;SDS011;9526;52.612;13.300;2024-03-02T07:09:24;79.32;;;35.92;;
18796;SDS011;9526;52.612;13.300;2024-03-02T07:11:48;84.05;;;35.20;;
18796;SDS011;9526;52.612;13.300;2024-03-02T07:14:13;87.25;;;36.28;;
18796;SDS011;9526;52.612;13.300;2024-03-02T07:16:37;78.68;;;35.38;;
18796;SDS011;9526;52.612;13.300;2024-03-02T07:19:02;77.40;;;34.35;;
18796;SDS011;9526;52.612;13.300;2024-03-02T07:21:26;84.40;;;34.78;;
18796;SDS011;9526;52.612;13.300;2024-03-02T07:23:50;78.63;;;36.42;;
18796;SDS011;9526;52.612;13.300;2024-03-02T07:26:15;81.43;;;35.83;;
18796;SDS011;9526;52.612;13.300;2024-03-02T07:28:43;79.03;;;35.85;;
18796;SDS011;9526;52.612;13.300;2024-03-02T07:31:07;88.70;;;37.17;;
18796;SDS011;9526;52.612;13.300;2024-03-02T07:33:31;81.45;;;37.30;;
18796;SDS011;9526;52.612;13.300;2024-03-02T07:35:55;85.88;;;36.97;;
18796;SDS011;9526;52.612;13.300;2024-03-02T07:38:23;82.63;;;37.38;;
18796;SDS011;9526;52.612;13.300;2024-03-02T07:40:47;90.18;;;37.92;;
18796;SDS011;9526;52.612;13.300;2024-03-02T07:43:13;93.07;;;38.03;;
18796;SDS011;9526;52.612;13.300;2024-03-02T07:45:37;86.05;;;37.42;;
18796;SDS011;9526;52.612;13.300;2024-03-02T07:48:01;79.85;;;36.50;;
18796;SDS011;9526;52.612;13.300;2024-03-02T07:50:25;80.30;;;36.42;;
18796;SDS011;9526;52.612;13.300;2024-03-02T07:52:50;84.10;;;36.72;;
18796;SDS011;9526;52.612;13.300;2024-03-02T07:55:14;85.05;;;36.17;;
18796;SDS011;9526;52.612;13.300;2024-03-02T07:57:38;85.03;;;35.75;;
18796;SDS011;9526;52.612;13.300;2024-03-02T08:00:04;77.97;;;35.70;;
18796;SDS011;9526;52.612;13.300;2024-03-02T08:02:32;78.82;;;35.38;;
18796;SDS011;9526;52.612;13.300;2024-03-02T08:04:56;83.20;;;35.10;;
18796;SDS011;9526;52.612;13.300;2024-03-02T08:07:20;88.18;;;37.33;;
18796;SDS011;9526;52.612;13.300;2024-03-02T08:09:44;80.93;;;34.90;;
18796;SDS011;9526;52.612;13.300;2024-03-02T08:12:08;78.50;;;34.88;;
18796;SDS011;9526;52.612;13.300;2024-03-02T08:14:31;82.55;;;36.13;;
18796;SDS011;9526;52.612;13.300;2024-03-02T08:16:57;83.20;;;35.17;;
18796;SDS011;9526;52.612;13.300;2024-03-02T08:19:23;78.03;;;35.70;;
18796;SDS011;9526;52.612;13.300;2024-03-02T08:21:48;79.55;;;37.72;;
18796;SDS011;9526;52.612;13.300;2024-03-02T08:24:12;83.25;;;36.17;;
18796;SDS011;9526;52.612;13.300;2024-03-02T08:26:36;81.63;;;36.00;;
18796;SDS011;9526;52.612;13.300;2024-03-02T08:29:00;82.75;;;35.10;;
18796;SDS011;9526;52.612;13.300;2024-03-02T08:31:25;74.20;;;35.17;;
18796;SDS011;9526;52.612;13.300;2024-03-02T08:33:50;79.68;;;34.53;;
18796;SDS011;9526;52.612;13.300;2024-03-02T08:36:14;77.20;;;35.63;;
18796;SDS011;9526;52.612;13.300;2024-03-02T08:38:38;83.60;;;37.38;;
18796;SDS011;9526;52.612;13.300;2024-03-02T08:41:03;82.75;;;36.38;;
18796;SDS011;9526;52.612;13.300;2024-03-02T08:43:27;79.85;;;35.60;;
18796;SDS011;9526;52.612;13.300;2024-03-02T08:45:51;80.97;;;35.38;;
18796;SDS011;9526;52.612;13.300;2024-03-02T08:48:15;78.28;;;35.75;;
18796;SDS011;9526;52.612;13.300;2024-03-02T08:50:40;82.53;;;36.78;;
18796;SDS011;9526;52.612;13.300;2024-03-02T08:53:04;76.97;;;35.63;;
18796;SDS011;9526;52.612;13.300;2024-03-02T08:55:28;83.20;;;38.92;;
18796;SDS011;9526;52.612;13.300;2024-03-02T08:57:52;87.65;;;39.30;;
18796;SDS011;9526;52.612;13.300;2024-03-02T09:00:16;83.25;;;35.72;;
18796;SDS011;9526;52.612;13.300;2024-03-02T09:02:40;76.75;;;34.95;;
18796;SDS011;9526;52.612;13.300;2024-03-02T09:05:04;72.88;;;33.55;;
18796;SDS011;9526;52.612;13.300;2024-03-02T09:07:31;73.63;;;35.00;;
18796;SDS011;9526;52.612;13.300;2024-03-02T09:09:55;73.32;;;34.17;;
18796;SDS011;9526;52.612;13.300;2024-03-02T09:12:19;75.00;;;34.45;;
18796;SDS011;9526;52.612;13.300;2024-03-02T09:14:43;76.25;;;34.08;;
18796;SDS011;9526;52.612;13.300;2024-03-02T09:17:08;73.95;;;34.47;;
18796;SDS011;9526;52.612;13.300;2024-03-02T09:19:32;79.68;;;34.92;;
18796;SDS011;9526;52.612;13.300;2024-03-02T09:21:56;68.43;;;32.30;;
18796;SDS011;9526;52.612;13.300;2024-03-02T09:24:22;70.90;;;32.85;;
18796;SDS011;9526;52.612;13.300;2024-03-02T09:26:46;73.90;;;33.47;;
18796;SDS011;9526;52.612;13.300;2024-03-02T09:29:09;74.20;;;34.28;;
18796;SDS011;9526;52.612;13.300;2024-03-02T09:31:38;70.70;;;34.25;;
18796;SDS011;9526;52.612;13.300;2024-03-02T09:34:02;72.85;;;32.92;;
18796;SDS011;9526;52.612;13.300;2024-03-02T09:36:26;74.50;;;34.80;;
18796;SDS011;9526;52.612;13.300;2024-03-02T09:38:50;77.18;;;34.20;;
18796;SDS011;9526;52.612;13.300;2024-03-02T09:41:15;72.90;;;33.42;;
18796;SDS011;9526;52.612;13.300;2024-03-02T09:43:41;65.63;;;29.60;;
18796;SDS011;9526;52.612;13.300;2024-03-02T09:46:05;66.95;;;31.75;;
18796;SDS011;9526;52.612;13.300;2024-03-02T09:48:29;71.43;;;32.75;;
18796;SDS011;9526;52.612;13.300;2024-03-02T09:50:53;71.88;;;33.33;;
18796;SDS011;9526;52.612;13.300;2024-03-02T09:53:17;69.13;;;32.13;;
18796;SDS011;9526;52.612;13.300;2024-03-02T09:55:45;68.88;;;31.95;;
18796;SDS011;9526;52.612;13.300;2024-03-02T09:58:10;63.50;;;29.98;;
18796;SDS011;9526;52.612;13.300;2024-03-02T10:00:34;67.40;;;31.00;;
18796;SDS011;9526;52.612;13.300;2024-03-02T10:02:57;60.35;;;28.88;;
18796;SDS011;9526;52.612;13.300;2024-03-02T10:05:25;66.90;;;30.92;;
18796;SDS011;9526;52.612;13.300;2024-03-02T10:07:59;61.50;;;28.65;;
18796;SDS011;9526;52.612;13.300;2024-03-02T10:10:26;70.75;;;30.42;;
18796;SDS011;9526;52.612;13.300;2024-03-02T10:13:03;57.05;;;26.02;;
18796;SDS011;9526;52.612;13.300;2024-03-02T10:15:29;68.00;;;29.15;;
18796;SDS011;9526;52.612;13.300;2024-03-02T10:17:53;67.57;;;29.25;;
18796;SDS011;9526;52.612;13.300;2024-03-02T10:20:22;59.45;;;28.65;;
18796;SDS011;9526;52.612;13.300;2024-03-02T10:22:47;59.53;;;28.33;;
18796;SDS011;9526;52.612;13.300;2024-03-02T10:25:11;58.20;;;28.35;;
18796;SDS011;9526;52.612;13.300;2024-03-02T10:28:08;60.78;;;28.25;;
18796;SDS011;9526;52.612;13.300;2024-03-02T10:30:33;59.20;;;27.13;;
18796;SDS011;9526;52.612;13.300;2024-03-02T10:32:57;56.20;;;26.75;;
18796;SDS011;9526;52.612;13.300;2024-03-02T10:35:21;55.22;;;26.67;;
18796;SDS011;9526;52.612;13.300;2024-03-02T10:37:47;56.35;;;27.65;;
18796;SDS011;9526;52.612;13.300;2024-03-02T10:40:11;47.90;;;24.40;;
18796;SDS011;9526;52.612;13.300;2024-03-02T10:42:36;49.70;;;24.60;;
18796;SDS011;9526;52.612;13.300;2024-03-02T10:45:00;54.60;;;26.15;;
18796;SDS011;9526;52.612;13.300;2024-03-02T10:47:26;51.55;;;25.52;;
18796;SDS011;9526;52.612;13.300;2024-03-02T10:49:51;53.28;;;24.27;;
18796;SDS011;9526;52.612;13.300;2024-03-02T10:52:17;46.72;;;24.95;;
18796;SDS011;9526;52.612;13.300;2024-03-02T10:54:41;51.20;;;23.92;;
18796;SDS011;9526;52.612;13.300;2024-03-02T10:57:05;54.47;;;25.35;;
18796;SDS011;9526;52.612;13.300;2024-03-02T10:59:32;47.38;;;24.08;;
18796;SDS011;9526;52.612;13.300;2024-03-02T11:01:59;49.45;;;24.05;;
18796;SDS011;9526;52.612;13.300;2024-03-02T11:04:29;44.95;;;20.75;;
18796;SDS011;9526;52.612;13.300;2024-03-02T11:06:56;43.50;;;22.27;;
18796;SDS011;9526;52.612;13.300;2024-03-02T11:09:25;48.63;;;21.83;;
18796;SDS011;9526;52.612;13.300;2024-03-02T11:11:54;45.85;;;20.67;;
18796;SDS011;9526;52.612;13.300;2024-03-02T11:14:25;42.28;;;20.52;;
18796;SDS011;9526;52.612;13.300;2024-03-02T11:16:49;39.67;;;20.27;;
18796;SDS011;9526;52.612;13.300;2024-03-02T11:19:13;39.10;;;20.65;;
18796;SDS011;9526;52.612;13.300;2024-03-02T11:21:40;42.03;;;21.60;;
18796;SDS011;9526;52.612;13.300;2024-03-02T11:26:59;40.90;;;20.70;;
18796;SDS011;9526;52.612;13.300;2024-03-02T11:32:06;35.25;;;18.17;;
18796;SDS011;9526;52.612;13.300;2024-03-02T11:34:41;35.08;;;18.48;;
18796;SDS011;9526;52.612;13.300;2024-03-02T11:37:09;33.00;;;17.50;;
18796;SDS011;9526;52.612;13.300;2024-03-02T11:39:33;40.60;;;19.08;;
18796;SDS011;9526;52.612;13.300;2024-03-02T11:41:57;39.72;;;19.55;;
18796;SDS011;9526;52.612;13.300;2024-03-02T11:44:22;37.97;;;19.15;;
18796;SDS011;9526;52.612;13.300;2024-03-02T11:46:51;35.97;;;18.13;;
18796;SDS011;9526;52.612;13.300;2024-03-02T11:49:35;33.53;;;18.10;;
18796;SDS011;9526;52.612;13.300;2024-03-02T11:52:01;35.22;;;17.67;;
18796;SDS011;9526;52.612;13.300;2024-03-02T11:54:27;35.15;;;17.27;;
18796;SDS011;9526;52.612;13.300;2024-03-02T11:56:55;32.95;;;16.88;;
18796;SDS011;9526;52.612;13.300;2024-03-02T11:59:21;31.02;;;16.73;;
18796;SDS011;9526;52.612;13.300;2024-03-02T12:01:45;29.80;;;16.77;;
18796;SDS011;9526;52.612;13.300;2024-03-02T12:04:12;38.08;;;18.05;;
18796;SDS011;9526;52.612;13.300;2024-03-02T12:06:36;38.88;;;17.08;;
18796;SDS011;9526;52.612;13.300;2024-03-02T12:09:01;31.67;;;16.63;;
18796;SDS011;9526;52.612;13.300;2024-03-02T12:11:26;31.92;;;16.58;;
18796;SDS011;9526;52.612;13.300;2024-03-02T12:13:53;33.38;;;16.77;;
18796;SDS011;9526;52.612;13.300;2024-03-02T12:16:22;34.03;;;17.58;;
18796;SDS011;9526;52.612;13.300;2024-03-02T12:18:47;29.05;;;16.45;;
18796;SDS011;9526;52.612;13.300;2024-03-02T12:21:11;33.63;;;16.30;;
18796;SDS011;9526;52.612;13.300;2024-03-02T12:23:35;32.15;;;16.30;;
18796;SDS011;9526;52.612;13.300;2024-03-02T12:25:59;35.17;;;17.40;;
18796;SDS011;9526;52.612;13.300;2024-03-02T12:28:24;33.80;;;15.52;;
18796;SDS011;9526;52.612;13.300;2024-03-02T12:30:48;32.75;;;15.70;;
18796;SDS011;9526;52.612;13.300;2024-03-02T12:33:12;27.52;;;15.27;;
18796;SDS011;9526;52.612;13.300;2024-03-02T12:35:36;28.20;;;15.50;;
18796;SDS011;9526;52.612;13.300;2024-03-02T12:38:01;29.67;;;15.27;;
18796;SDS011;9526;52.612;13.300;2024-03-02T12:40:25;27.63;;;14.43;;
18796;SDS011;9526;52.612;13.300;2024-03-02T12:42:49;26.30;;;14.25;;
18796;SDS011;9526;52.612;13.300;2024-03-02T12:45:15;26.58;;;14.05;;
18796;SDS011;9526;52.612;13.300;2024-03-02T12:47:46;31.45;;;14.85;;
18796;SDS011;9526;52.612;13.300;2024-03-02T12:50:10;26.35;;;14.38;;
18796;SDS011;9526;52.612;13.300;2024-03-02T12:52:34;29.98;;;16.40;;
18796;SDS011;9526;52.612;13.300;2024-03-02T12:54:58;29.65;;;15.27;;
18796;SDS011;9526;52.612;13.300;2024-03-02T12:57:26;30.83;;;15.52;;
18796;SDS011;9526;52.612;13.300;2024-03-02T12:59:51;29.00;;;15.77;;
18796;SDS011;9526;52.612;13.300;2024-03-02T13:02:18;28.35;;;15.13;;
18796;SDS011;9526;52.612;13.300;2024-03-02T13:04:42;27.52;;;14.65;;
18796;SDS011;9526;52.612;13.300;2024-03-02T13:07:05;28.60;;;14.70;;
18796;SDS011;9526;52.612;13.300;2024-03-02T13:09:30;30.48;;;15.30;;
18796;SDS011;9526;52.612;13.300;2024-03-02T13:11:55;26.73;;;14.10;;
18796;SDS011;9526;52.612;13.300;2024-03-02T13:14:21;29.48;;;14.90;;
18796;SDS011;9526;52.612;13.300;2024-03-02T13:16:46;31.83;;;15.57;;
18796;SDS011;9526;52.612;13.300;2024-03-02T13:19:11;32.13;;;15.38;;
18796;SDS011;9526;52.612;13.300;2024-03-02T13:21:35;30.05;;;14.43;;
18796;SDS011;9526;52.612;13.300;2024-03-02T13:23:59;25.75;;;14.13;;
18796;SDS011;9526;52.612;13.300;2024-03-02T13:26:23;24.17;;;13.48;;
18796;SDS011;9526;52.612;13.300;2024-03-02T13:28:47;27.92;;;13.90;;
18796;SDS011;9526;52.612;13.300;2024-03-02T13:31:11;23.35;;;13.55;;
18796;SDS011;9526;52.612;13.300;2024-03-02T13:33:34;31.67;;;14.43;;
18796;SDS011;9526;52.612;13.300;2024-03-02T13:35:59;27.55;;;13.80;;
18796;SDS011;9526;52.612;13.300;2024-03-02T13:38:24;27.73;;;13.98;;
18796;SDS011;9526;52.612;13.300;2024-03-02T13:40:48;29.45;;;14.48;;
18796;SDS011;9526;52.612;13.300;2024-03-02T13:43:13;26.08;;;14.70;;
18796;SDS011;9526;52.612;13.300;2024-03-02T13:45:37;25.48;;;13.45;;
18796;SDS011;9526;52.612;13.300;2024-03-02T13:48:01;24.08;;;13.20;;
18796;SDS011;9526;52.612;13.300;2024-03-02T13:50:26;28.25;;;14.45;;
18796;SDS011;9526;52.612;13.300;2024-03-02T13:52:52;30.50;;;14.50;;
18796;SDS011;9526;52.612;13.300;2024-03-02T13:55:15;30.15;;;14.13;;
18796;SDS011;9526;52.612;13.300;2024-03-02T13:57:39;30.83;;;15.25;;
18796;SDS011;9526;52.612;13.300;2024-03-02T14:00:03;29.02;;;15.18;;
18796;SDS011;9526;52.612;13.300;2024-03-02T14:02:35;26.65;;;15.02;;
18796;SDS011;9526;52.612;13.300;2024-03-02T14:04:59;28.38;;;14.38;;
18796;SDS011;9526;52.612;13.300;2024-03-02T14:07:22;23.23;;;12.82;;
18796;SDS011;9526;52.612;13.300;2024-03-02T14:09:47;20.40;;;10.98;;
18796;SDS011;9526;52.612;13.300;2024-03-02T14:12:11;18.35;;;9.90;;
18796;SDS011;9526;52.612;13.300;2024-03-02T14:14:36;20.13;;;10.48;;